createdAt,value
2022-12-15T00:02:15.858Z,16.25
2022-12-15T00:05:01.591Z,17.38
2022-12-15T00:07:47.480Z,17.30
2022-12-15T00:10:33.236Z,16.63
2022-12-15T00:13:18.951Z,20.05
2022-12-15T00:16:05.758Z,18.38
2022-12-15T00:18:51.327Z,16.80
2022-12-15T00:21:37.224Z,18.75
2022-12-15T00:24:22.993Z,18.10
2022-12-15T00:27:08.729Z,17.00
2022-12-15T00:29:54.570Z,15.60
2022-12-15T00:32:41.339Z,16.33
2022-12-15T00:35:27.899Z,18.75
2022-12-15T00:38:14.087Z,16.98
2022-12-15T00:40:41.419Z,18.55
2022-12-15T00:43:12.168Z,18.13
2022-12-15T00:45:58.174Z,16.80
2022-12-15T00:48:25.396Z,16.55
2022-12-15T00:50:52.628Z,16.83
2022-12-15T00:53:42.665Z,18.83
2022-12-15T00:56:29.229Z,16.38
2022-12-15T00:59:15.431Z,17.05
2022-12-15T01:02:01.396Z,16.75
2022-12-15T01:04:47.945Z,18.73
2022-12-15T01:07:34.160Z,18.98
2022-12-15T01:10:20.377Z,19.13
2022-12-15T01:13:06.564Z,19.95
2022-12-15T01:15:54.919Z,16.48
2022-12-15T01:18:41.279Z,15.63
2022-12-15T01:21:09.925Z,19.33
2022-12-15T01:23:38.553Z,16.48
2022-12-15T01:26:07.116Z,17.35
2022-12-15T01:28:34.507Z,16.55
2022-12-15T01:31:01.864Z,16.75
2022-12-15T01:33:29.614Z,16.23
2022-12-15T01:35:57.996Z,16.33
2022-12-15T01:38:25.483Z,18.80
2022-12-15T01:40:54.108Z,18.08
2022-12-15T01:43:23.151Z,16.75
2022-12-15T01:45:50.500Z,15.90
2022-12-15T01:48:27.106Z,16.05
2022-12-15T01:51:00.576Z,18.15
2022-12-15T01:53:29.159Z,17.55
2022-12-15T01:55:57.383Z,16.55
2022-12-15T01:58:24.623Z,16.70
2022-12-15T02:00:51.981Z,17.55
2022-12-15T02:03:19.919Z,19.05
2022-12-15T02:05:47.707Z,17.67
2022-12-15T02:08:15.071Z,18.58
2022-12-15T02:10:45.348Z,17.75
2022-12-15T02:13:20.378Z,14.88
2022-12-15T02:16:02.420Z,15.77
2022-12-15T02:18:29.676Z,18.67
2022-12-15T02:20:58.293Z,15.98
2022-12-15T02:23:34.879Z,18.80
2022-12-15T02:26:13.981Z,16.67
2022-12-15T02:29:06.874Z,16.48
2022-12-15T02:31:50.664Z,15.77
2022-12-15T02:34:27.179Z,14.70
2022-12-15T02:37:02.956Z,20.00
2022-12-15T02:39:30.233Z,17.00
2022-12-15T02:41:57.448Z,16.90
2022-12-15T02:44:27.555Z,19.00
2022-12-15T02:47:13.182Z,19.30
2022-12-15T02:49:43.376Z,16.23
2022-12-15T02:52:16.673Z,19.17
2022-12-15T02:54:50.715Z,13.98
2022-12-15T02:57:20.592Z,19.17
2022-12-15T02:59:55.584Z,16.70
2022-12-15T03:02:27.722Z,19.27
2022-12-15T03:04:55.815Z,17.92
2022-12-15T03:07:27.740Z,13.15
2022-12-15T03:10:02.854Z,17.40
2022-12-15T03:12:30.118Z,17.55
2022-12-15T03:14:58.084Z,14.30
2022-12-15T03:17:25.349Z,16.27
2022-12-15T03:19:52.650Z,15.40
2022-12-15T03:22:20.349Z,15.30
2022-12-15T03:24:48.345Z,15.70
2022-12-15T03:27:15.537Z,14.57
2022-12-15T03:29:42.915Z,16.92
2022-12-15T03:32:10.282Z,13.98
2022-12-15T03:34:37.595Z,16.92
2022-12-15T03:37:06.361Z,17.98
2022-12-15T03:39:43.216Z,17.17
2022-12-15T03:42:14.391Z,17.70
2022-12-15T03:44:43.631Z,16.88
2022-12-15T03:47:17.055Z,13.82
2022-12-15T03:49:44.456Z,15.68
2022-12-15T03:52:12.089Z,16.90
2022-12-15T03:54:39.344Z,15.40
2022-12-15T03:57:06.873Z,14.20
2022-12-15T03:59:34.095Z,16.33
2022-12-15T04:02:01.519Z,18.40
2022-12-15T04:04:28.873Z,16.33
2022-12-15T04:06:56.100Z,16.73
2022-12-15T04:09:23.406Z,15.80
2022-12-15T04:11:50.745Z,16.75
2022-12-15T04:14:18.022Z,14.80
2022-12-15T04:16:45.306Z,18.10
2022-12-15T04:19:31.058Z,16.05
2022-12-15T04:22:01.956Z,15.57
2022-12-15T04:24:47.666Z,16.00
2022-12-15T04:27:33.448Z,18.42
2022-12-15T04:30:19.442Z,16.50
2022-12-15T04:33:05.267Z,18.58
2022-12-15T04:35:52.573Z,16.20
2022-12-15T04:38:50.107Z,17.27
2022-12-15T04:41:37.971Z,15.10
2022-12-15T04:44:24.438Z,16.88
2022-12-15T04:47:10.583Z,17.35
2022-12-15T04:49:56.271Z,15.70
2022-12-15T04:52:42.545Z,14.23
2022-12-15T04:55:28.682Z,16.95
2022-12-15T04:58:14.667Z,17.98
2022-12-15T05:01:00.725Z,18.08
2022-12-15T05:03:46.836Z,20.40
2022-12-15T05:06:32.572Z,16.45
2022-12-15T05:09:18.390Z,16.77
2022-12-15T05:12:04.211Z,15.40
2022-12-15T05:14:50.136Z,17.88
2022-12-15T05:17:41.350Z,16.58
2022-12-15T05:20:28.131Z,16.13
2022-12-15T05:23:14.584Z,14.45
2022-12-15T05:26:01.029Z,16.33
2022-12-15T05:28:47.350Z,14.57
2022-12-15T05:31:33.716Z,16.05
2022-12-15T05:34:05.121Z,13.90
2022-12-15T05:36:32.826Z,16.42
2022-12-15T05:39:00.081Z,13.30
2022-12-15T05:41:27.411Z,22.67
2022-12-15T05:43:54.678Z,16.63
2022-12-15T05:46:22.114Z,15.30
2022-12-15T05:48:49.409Z,13.40
2022-12-15T05:51:16.595Z,16.50
2022-12-15T05:53:43.854Z,14.57
2022-12-15T05:56:12.327Z,17.58
2022-12-15T05:58:45.159Z,14.38
2022-12-15T06:01:17.300Z,14.55
2022-12-15T06:03:44.807Z,17.55
2022-12-15T06:06:12.846Z,15.77
2022-12-15T06:08:41.212Z,15.85
2022-12-15T06:11:08.429Z,16.60
2022-12-15T06:13:35.689Z,15.45
2022-12-15T06:16:02.946Z,14.30
2022-12-15T06:18:31.549Z,14.52
2022-12-15T06:21:02.994Z,16.33
2022-12-15T06:23:31.839Z,16.35
2022-12-15T06:25:59.808Z,15.00
2022-12-15T06:28:27.111Z,16.13
2022-12-15T06:30:55.414Z,16.33
2022-12-15T06:33:23.595Z,16.95
2022-12-15T06:35:51.404Z,16.25
2022-12-15T06:38:18.643Z,15.57
2022-12-15T06:40:45.885Z,16.25
2022-12-15T06:43:13.087Z,21.45
2022-12-15T06:45:40.371Z,16.13
2022-12-15T06:48:07.632Z,16.70
2022-12-15T06:50:35.077Z,15.48
2022-12-15T06:53:02.301Z,15.52
2022-12-15T06:55:29.641Z,16.92
2022-12-15T06:57:56.947Z,15.43
2022-12-15T07:00:24.424Z,16.00
2022-12-15T07:02:51.913Z,15.07
2022-12-15T07:05:19.381Z,18.08
2022-12-15T07:07:46.634Z,16.92
2022-12-15T07:10:13.953Z,18.52
2022-12-15T07:12:41.175Z,12.90
2022-12-15T07:15:08.689Z,14.55
2022-12-15T07:17:36.985Z,14.27
2022-12-15T07:20:05.192Z,15.00
2022-12-15T07:22:32.524Z,13.45
2022-12-15T07:24:59.803Z,17.27
2022-12-15T07:27:27.106Z,14.70
2022-12-15T07:29:54.458Z,18.98
2022-12-15T07:32:21.934Z,16.38
2022-12-15T07:34:49.423Z,16.77
2022-12-15T07:37:17.227Z,15.65
2022-12-15T07:39:44.777Z,20.52
2022-12-15T07:42:12.086Z,18.27
2022-12-15T07:44:39.351Z,19.08
2022-12-15T07:47:06.703Z,13.95
2022-12-15T07:49:34.283Z,19.20
2022-12-15T07:52:01.567Z,16.75
2022-12-15T07:54:29.237Z,15.27
2022-12-15T07:56:56.499Z,15.40
2022-12-15T07:59:23.744Z,15.70
2022-12-15T08:01:51.359Z,14.70
2022-12-15T08:04:18.782Z,16.58
2022-12-15T08:06:46.095Z,16.60
2022-12-15T08:09:13.434Z,15.10
2022-12-15T08:11:40.772Z,16.80
2022-12-15T08:14:13.499Z,15.88
2022-12-15T08:16:45.263Z,15.23
2022-12-15T08:19:13.878Z,15.25
2022-12-15T08:21:42.089Z,18.52
2022-12-15T08:24:10.144Z,16.30
2022-12-15T08:26:38.084Z,15.60
2022-12-15T08:31:53.778Z,20.58
2022-12-15T08:34:21.216Z,15.00
2022-12-15T08:36:48.463Z,15.65
2022-12-15T08:39:16.621Z,17.90
2022-12-15T08:41:44.116Z,17.55
2022-12-15T08:44:11.394Z,17.30
2022-12-15T08:46:38.686Z,16.42
2022-12-15T08:49:06.249Z,15.15
2022-12-15T08:51:33.762Z,18.13
2022-12-15T08:54:01.654Z,15.95
2022-12-15T08:56:29.567Z,17.67
2022-12-15T08:58:58.412Z,18.58
2022-12-15T09:01:27.051Z,19.20
2022-12-15T09:03:55.286Z,18.63
2022-12-15T09:06:24.151Z,15.75
2022-12-15T09:08:51.370Z,17.90
2022-12-15T09:11:18.878Z,16.27
2022-12-15T09:13:46.201Z,18.17
2022-12-15T09:16:15.194Z,19.35
2022-12-15T09:18:43.366Z,15.35
2022-12-15T09:21:11.284Z,18.30
2022-12-15T09:23:38.775Z,19.00
2022-12-15T09:26:06.093Z,17.40
2022-12-15T09:28:33.414Z,17.38
2022-12-15T09:31:14.371Z,16.35
2022-12-15T09:33:42.476Z,14.55
2022-12-15T09:36:10.608Z,16.55
2022-12-15T09:38:38.527Z,17.25
2022-12-15T09:41:15.075Z,15.25
2022-12-15T09:43:47.494Z,17.13
2022-12-15T09:46:28.363Z,20.92
2022-12-15T09:48:58.787Z,23.98
2022-12-15T09:51:40.071Z,23.27
2022-12-15T09:54:09.142Z,23.65
2022-12-15T09:56:49.812Z,21.48
2022-12-15T09:59:26.893Z,22.10
2022-12-15T10:02:07.811Z,19.63
2022-12-15T10:04:42.170Z,23.13
2022-12-15T10:07:15.330Z,21.20
2022-12-15T10:09:42.682Z,19.83
2022-12-15T10:12:22.039Z,19.95
2022-12-15T10:14:49.881Z,19.48
2022-12-15T10:17:23.214Z,21.95
2022-12-15T10:19:50.395Z,22.02
2022-12-15T10:22:22.296Z,21.05
2022-12-15T10:27:52.658Z,21.70
2022-12-15T10:30:21.705Z,19.17
2022-12-15T10:32:52.016Z,17.80
2022-12-15T10:35:22.594Z,23.10
2022-12-15T10:37:50.192Z,19.77
2022-12-15T10:40:40.587Z,21.92
2022-12-15T10:43:14.416Z,24.98
2022-12-15T10:45:41.902Z,20.63
2022-12-15T10:48:18.560Z,19.38
2022-12-15T10:50:45.929Z,24.05
2022-12-15T10:53:35.399Z,21.67
2022-12-15T10:56:02.918Z,21.08
2022-12-15T10:58:30.453Z,24.50
2022-12-15T11:01:08.547Z,23.27
2022-12-15T11:03:39.971Z,22.92
2022-12-15T11:06:15.604Z,22.45
2022-12-15T11:08:44.170Z,22.17
2022-12-15T11:11:52.791Z,23.17
2022-12-15T11:14:24.340Z,21.42
2022-12-15T11:16:53.584Z,23.23
2022-12-15T11:19:36.390Z,21.35
2022-12-15T11:22:13.166Z,22.85
2022-12-15T11:24:44.695Z,23.35
2022-12-15T11:27:23.830Z,24.02
2022-12-15T11:30:10.014Z,23.95
2022-12-15T11:32:38.510Z,22.75
2022-12-15T11:35:12.282Z,22.92
2022-12-15T11:37:40.971Z,21.15
2022-12-15T11:40:08.259Z,24.52
2022-12-15T11:42:41.932Z,20.13
2022-12-15T11:45:29.430Z,26.75
2022-12-15T11:48:05.463Z,22.00
2022-12-15T11:50:51.097Z,24.73
2022-12-15T11:53:24.605Z,20.35
2022-12-15T11:56:04.018Z,21.25
2022-12-15T11:58:31.794Z,24.50
2022-12-15T12:01:02.511Z,22.63
2022-12-15T12:03:29.724Z,25.27
2022-12-15T12:06:11.986Z,24.50
2022-12-15T12:08:55.631Z,23.67
2022-12-15T12:11:28.792Z,24.20
2022-12-15T12:14:09.838Z,22.90
2022-12-15T12:16:43.336Z,21.38
2022-12-15T12:19:12.123Z,22.17
2022-12-15T12:21:41.538Z,23.20
2022-12-15T12:24:14.601Z,22.88
2022-12-15T12:26:45.368Z,23.73
2022-12-15T12:29:21.831Z,25.23
2022-12-15T12:32:04.136Z,24.25
2022-12-15T12:34:50.971Z,22.70
2022-12-15T12:37:23.481Z,22.33
2022-12-15T12:39:51.836Z,21.58
2022-12-15T12:42:33.959Z,24.88
2022-12-15T12:45:02.221Z,24.67
2022-12-15T12:47:37.208Z,24.33
2022-12-15T12:50:07.400Z,26.35
2022-12-15T12:52:36.981Z,25.90
2022-12-15T12:55:26.108Z,25.40
2022-12-15T12:57:54.433Z,24.77
2022-12-15T13:00:23.165Z,23.27
2022-12-15T13:02:53.587Z,26.58
2022-12-15T13:05:26.132Z,25.42
2022-12-15T13:08:05.672Z,27.90
2022-12-15T13:10:33.953Z,28.27
2022-12-15T13:13:24.914Z,25.85
2022-12-15T13:15:59.018Z,24.83
2022-12-15T13:18:28.173Z,26.35
2022-12-15T13:20:56.434Z,27.70
2022-12-15T13:23:23.692Z,26.67
2022-12-15T13:25:57.017Z,26.10
2022-12-15T13:28:38.244Z,26.13
2022-12-15T13:31:18.190Z,26.00
2022-12-15T13:33:48.776Z,29.83
2022-12-15T13:36:35.032Z,29.38
2022-12-15T13:39:02.284Z,31.02
2022-12-15T13:41:29.542Z,24.33
2022-12-15T13:43:58.601Z,25.20
2022-12-15T13:46:29.713Z,27.95
2022-12-15T13:49:03.199Z,27.38
2022-12-15T13:51:33.616Z,24.98
2022-12-15T13:54:19.351Z,29.02
2022-12-15T13:56:50.711Z,27.98
2022-12-15T13:59:50.670Z,29.50
2022-12-15T14:02:29.115Z,30.05
2022-12-15T14:05:15.147Z,27.30
2022-12-15T14:08:03.592Z,31.20
2022-12-15T14:10:53.186Z,28.80
2022-12-15T14:13:25.358Z,28.63
2022-12-15T14:16:07.995Z,26.23
2022-12-15T14:18:36.632Z,26.98
2022-12-15T14:21:07.194Z,33.58
2022-12-15T14:24:03.910Z,28.92
2022-12-15T14:26:32.097Z,28.85
2022-12-15T14:29:02.024Z,29.33
2022-12-15T14:31:29.545Z,27.58
2022-12-15T14:34:02.887Z,30.70
2022-12-15T14:36:31.676Z,25.88
2022-12-15T14:39:00.811Z,30.15
2022-12-15T14:41:36.508Z,25.70
2022-12-15T14:44:32.179Z,26.60
2022-12-15T14:46:53.275Z,28.95
2022-12-15T14:49:24.562Z,28.10
2022-12-15T14:51:53.367Z,27.25
2022-12-15T14:54:28.269Z,28.30
2022-12-15T14:57:21.825Z,26.60
2022-12-15T14:59:49.449Z,24.23
2022-12-15T15:02:22.962Z,30.90
2022-12-15T15:05:02.940Z,28.25
2022-12-15T15:07:31.791Z,27.02
2022-12-15T15:09:59.730Z,27.40
2022-12-15T15:12:46.051Z,28.35
2022-12-15T15:15:20.766Z,29.05
2022-12-15T15:17:57.054Z,27.88
2022-12-15T15:23:03.753Z,25.33
2022-12-15T15:25:39.394Z,27.02
2022-12-15T15:28:19.296Z,27.13
2022-12-15T15:30:52.303Z,28.13
2022-12-15T15:33:24.366Z,32.85
2022-12-15T15:35:53.611Z,32.60
2022-12-15T15:38:20.946Z,31.27
2022-12-15T15:40:55.898Z,30.00
2022-12-15T15:43:23.962Z,31.45
2022-12-15T15:45:53.297Z,30.23
2022-12-15T15:48:25.367Z,29.77
2022-12-15T15:50:53.403Z,31.13
2022-12-15T15:53:23.462Z,30.25
2022-12-15T15:55:51.951Z,28.92
2022-12-15T15:58:19.264Z,29.55
2022-12-15T16:00:46.624Z,31.52
2022-12-15T16:03:14.031Z,34.45
2022-12-15T16:05:42.156Z,33.88
2022-12-15T16:08:17.405Z,30.90
2022-12-15T16:10:45.572Z,29.60
2022-12-15T16:13:12.839Z,31.13
2022-12-15T16:15:40.113Z,28.35
2022-12-15T16:18:07.456Z,30.20
2022-12-15T16:20:35.089Z,27.27
2022-12-15T16:23:13.607Z,28.70
2022-12-15T16:25:50.091Z,30.83
2022-12-15T16:28:20.341Z,32.63
2022-12-15T16:30:47.801Z,31.35
2022-12-15T16:33:15.101Z,28.88
2022-12-15T16:35:42.741Z,30.88
2022-12-15T16:38:18.141Z,32.28
2022-12-15T16:40:45.554Z,34.42
2022-12-15T16:43:17.415Z,31.75
2022-12-15T16:45:45.972Z,31.45
2022-12-15T16:48:13.668Z,34.97
2022-12-15T16:50:42.763Z,32.08
2022-12-15T16:53:16.476Z,32.55
2022-12-15T16:55:44.388Z,35.00
2022-12-15T16:58:16.897Z,32.90
2022-12-15T17:00:44.897Z,31.67
2022-12-15T17:03:15.397Z,32.95
2022-12-15T17:05:44.121Z,30.80
2022-12-15T17:08:17.278Z,34.55
2022-12-15T17:10:44.668Z,33.08
2022-12-15T17:13:21.210Z,36.97
2022-12-15T17:15:48.670Z,34.38
2022-12-15T17:18:16.205Z,39.47
2022-12-15T17:20:43.786Z,33.90
2022-12-15T17:23:29.571Z,32.17
2022-12-15T17:28:44.240Z,35.50
2022-12-15T17:31:17.725Z,37.05
2022-12-15T17:33:45.135Z,33.03
2022-12-15T17:36:23.385Z,33.90
2022-12-15T17:38:52.838Z,36.35
2022-12-15T17:41:50.251Z,34.10
2022-12-15T17:44:36.834Z,32.92
2022-12-15T17:47:06.284Z,31.92
2022-12-15T17:49:36.461Z,34.55
2022-12-15T17:52:17.499Z,32.40
2022-12-15T17:54:44.919Z,35.90
2022-12-15T17:57:12.835Z,32.80
2022-12-15T17:59:40.173Z,33.60
2022-12-15T18:02:09.060Z,33.47
2022-12-15T18:04:36.331Z,30.38
2022-12-15T18:07:03.600Z,32.38
2022-12-15T18:09:31.083Z,36.35
2022-12-15T18:11:58.361Z,34.47
2022-12-15T18:14:25.617Z,37.38
2022-12-15T18:16:52.873Z,33.55
2022-12-15T18:19:20.312Z,33.47
2022-12-15T18:21:47.532Z,32.33
2022-12-15T18:24:17.186Z,35.38
2022-12-15T18:26:44.776Z,35.60
2022-12-15T18:29:14.077Z,36.40
2022-12-15T18:31:42.616Z,38.75
2022-12-15T18:34:14.300Z,40.20
2022-12-15T18:36:41.951Z,44.85
2022-12-15T18:39:19.796Z,44.53
2022-12-15T18:41:47.573Z,43.65
2022-12-15T18:44:24.081Z,41.95
2022-12-15T18:46:51.970Z,41.40
2022-12-15T18:49:19.817Z,37.72
2022-12-15T18:51:47.517Z,42.50
2022-12-15T18:54:17.501Z,38.78
2022-12-15T18:56:44.894Z,45.17
2022-12-15T18:59:16.036Z,41.58
2022-12-15T19:01:47.102Z,41.08
2022-12-15T19:04:14.921Z,38.20
2022-12-15T19:06:42.611Z,36.40
2022-12-15T19:09:20.123Z,38.35
2022-12-15T19:12:06.917Z,36.33
2022-12-15T19:14:40.192Z,36.00
2022-12-15T19:17:36.872Z,42.25
2022-12-15T19:20:24.791Z,35.05
2022-12-15T19:22:52.970Z,36.80
2022-12-15T19:25:25.962Z,35.72
2022-12-15T19:27:58.561Z,35.05
2022-12-15T19:30:29.574Z,39.25
2022-12-15T19:32:56.963Z,35.42
2022-12-15T19:35:24.769Z,34.67
2022-12-15T19:37:55.182Z,37.42
2022-12-15T19:40:23.700Z,37.63
2022-12-15T19:42:52.878Z,37.00
2022-12-15T19:45:24.718Z,38.67
2022-12-15T19:47:52.079Z,35.08
2022-12-15T19:50:21.236Z,40.25
2022-12-15T19:52:51.183Z,36.63
2022-12-15T19:55:21.254Z,38.63
2022-12-15T19:57:48.507Z,35.55
2022-12-15T20:00:21.849Z,34.70
2022-12-15T20:02:51.689Z,37.05
2022-12-15T20:05:19.742Z,36.08
2022-12-15T20:07:47.866Z,33.70
2022-12-15T20:10:25.888Z,34.20
2022-12-15T20:12:55.166Z,38.33
2022-12-15T20:15:23.886Z,37.67
2022-12-15T20:17:56.058Z,32.67
2022-12-15T20:20:24.395Z,34.33
2022-12-15T20:22:54.115Z,35.22
2022-12-15T20:27:49.065Z,32.53
2022-12-15T20:30:23.814Z,35.22
2022-12-15T20:32:51.141Z,33.05
2022-12-15T20:35:19.043Z,33.97
2022-12-15T20:37:46.966Z,36.80
2022-12-15T20:40:22.145Z,38.75
2022-12-15T20:42:49.757Z,34.53
2022-12-15T20:45:18.164Z,36.70
2022-12-15T20:47:47.676Z,36.90
2022-12-15T20:50:32.871Z,39.47
2022-12-15T20:53:00.537Z,36.30
2022-12-15T20:55:28.202Z,39.92
2022-12-15T20:57:55.544Z,35.20
2022-12-15T21:00:23.090Z,35.88
2022-12-15T21:02:52.075Z,37.03
2022-12-15T21:05:24.170Z,35.13
2022-12-15T21:07:51.996Z,42.40
2022-12-15T21:10:20.524Z,35.80
2022-12-15T21:12:50.560Z,38.80
2022-12-15T21:15:22.256Z,36.58
2022-12-15T21:18:10.951Z,35.42
2022-12-15T21:20:39.763Z,37.08
2022-12-15T21:23:07.315Z,38.65
2022-12-15T21:25:35.043Z,34.47
2022-12-15T21:28:02.488Z,32.17
2022-12-15T21:30:29.741Z,41.22
2022-12-15T21:32:57.125Z,40.78
2022-12-15T21:35:30.091Z,38.75
2022-12-15T21:37:59.164Z,37.72
2022-12-15T21:40:28.816Z,35.40
2022-12-15T21:45:24.408Z,34.28
2022-12-15T21:48:10.739Z,41.40
2022-12-15T21:50:38.422Z,36.75
2022-12-15T21:53:06.361Z,36.47
2022-12-15T21:55:33.816Z,36.88
2022-12-15T21:58:01.103Z,39.40
2022-12-15T22:00:28.488Z,37.00
2022-12-15T22:02:55.829Z,39.80
2022-12-15T22:05:23.157Z,37.88
2022-12-15T22:07:50.955Z,35.72
2022-12-15T22:10:19.219Z,38.55
2022-12-15T22:12:53.407Z,36.50
2022-12-15T22:15:26.470Z,37.53
2022-12-15T22:17:53.670Z,37.05
2022-12-15T22:20:23.000Z,42.35
2022-12-15T22:22:50.854Z,36.08
2022-12-15T22:25:22.532Z,37.80
2022-12-15T22:27:50.045Z,40.30
2022-12-15T22:30:21.040Z,37.05
2022-12-15T22:32:48.319Z,35.22
2022-12-15T22:35:16.654Z,38.03
2022-12-15T22:37:45.405Z,39.45
2022-12-15T22:40:13.632Z,38.85
2022-12-15T22:42:42.110Z,35.03
2022-12-15T22:45:15.396Z,36.10
2022-12-15T22:47:43.096Z,39.17
2022-12-15T22:50:21.029Z,37.97
2022-12-15T22:52:48.615Z,40.45
2022-12-15T22:55:16.723Z,35.80
2022-12-15T22:58:04.172Z,40.58
2022-12-15T23:00:31.925Z,42.53
2022-12-15T23:03:01.676Z,38.85
2022-12-15T23:05:29.175Z,37.70
2022-12-15T23:07:56.583Z,40.83
2022-12-15T23:10:42.246Z,37.65
2022-12-15T23:13:09.487Z,37.30
2022-12-15T23:15:55.437Z,37.75
2022-12-15T23:18:22.830Z,37.70
2022-12-15T23:20:51.743Z,42.10
2022-12-15T23:23:19.568Z,40.10
2022-12-15T23:25:46.818Z,39.83
2022-12-15T23:28:14.371Z,36.35
2022-12-15T23:30:41.615Z,39.67
2022-12-15T23:33:08.969Z,36.97
2022-12-15T23:35:36.167Z,37.13
2022-12-15T23:38:03.374Z,36.70
2022-12-15T23:40:30.620Z,41.10
2022-12-15T23:42:57.904Z,38.40
2022-12-15T23:45:25.212Z,33.90
2022-12-15T23:47:52.532Z,39.22
2022-12-15T23:50:21.406Z,36.97
2022-12-15T23:52:51.761Z,38.67
2022-12-15T23:55:19.272Z,36.17
2022-12-15T23:57:46.742Z,38.25
